Time;durP1;ratioP1;P1;durP2;ratioP2;P2;SDS_P1;SDS_P2;PMS_P1;PMS_P2;Temp;Humidity;BMP_temperature;BMP_pressure;BME280_temperature;BME280_humidity;BME280_pressure;Samples;Min_cycle;Max_cycle;Signal;HPM_P1;HPM_P2
2022/03/12 00:01:21;;;;;;;7.37;5.43;;;13.30;99.90;;;;;;4996925;28;20179;-91
2022/03/12 00:03:47;;;;;;;6.43;4.90;;;13.30;99.90;;;;;;4997246;28;20545;-91
2022/03/12 00:06:13;;;;;;;7.97;5.03;;;13.40;99.90;;;;;;4996903;28;20225;-91
2022/03/12 00:08:44;;;;;;;7.67;5.80;;;13.50;99.90;;;;;;4997165;28;20285;-91
2022/03/12 00:11:11;;;;;;;6.67;5.20;;;13.50;99.90;;;;;;4996948;28;20189;-92
2022/03/12 00:13:37;;;;;;;8.10;5.17;;;13.40;99.90;;;;;;4996535;28;20708;-91
2022/03/12 00:16:04;;;;;;;6.10;4.87;;;13.30;99.90;;;;;;4997173;28;20261;-91
2022/03/12 00:18:31;;;;;;;6.87;4.80;;;13.20;99.90;;;;;;4996808;28;20642;-90
2022/03/12 00:21:01;;;;;;;7.97;5.73;;;13.30;99.90;;;;;;4996590;28;20203;-91
2022/03/12 00:23:29;;;;;;;7.70;4.60;;;13.30;99.90;;;;;;4996803;28;20207;-90
2022/03/12 00:25:55;;;;;;;6.57;5.13;;;13.30;99.90;;;;;;4996257;28;20631;-90
2022/03/12 00:28:20;;;;;;;7.20;5.07;;;13.10;99.90;;;;;;4996591;28;20357;-90
2022/03/12 00:30:50;;;;;;;6.40;4.63;;;13.30;99.90;;;;;;4996609;28;20189;-90
2022/03/12 00:33:18;;;;;;;6.67;4.50;;;13.10;99.90;;;;;;4996413;28;20173;-90
2022/03/12 00:35:47;;;;;;;6.30;4.50;;;13.10;99.90;;;;;;4996528;28;20209;-90
2022/03/12 00:38:14;;;;;;;5.97;4.20;;;13.00;99.90;;;;;;4996385;28;20181;-91
2022/03/12 00:40:41;;;;;;;8.27;5.10;;;12.90;99.90;;;;;;4996318;28;20332;-90
2022/03/12 00:43:07;;;;;;;5.30;4.40;;;12.90;99.90;;;;;;4996098;28;20184;-90
2022/03/12 00:45:33;;;;;;;5.97;4.63;;;12.80;99.90;;;;;;4996396;28;20546;-90
2022/03/12 00:47:58;;;;;;;5.17;4.20;;;12.60;99.90;;;;;;4996511;28;20211;-90
2022/03/12 00:50:24;;;;;;;5.77;3.83;;;12.50;99.90;;;;;;4996396;28;20189;-90
2022/03/12 00:52:50;;;;;;;6.20;4.03;;;12.30;99.90;;;;;;4996150;28;20174;-89
2022/03/12 00:55:16;;;;;;;5.13;3.97;;;12.30;99.90;;;;;;4996219;28;20173;-89
2022/03/12 00:57:42;;;;;;;7.43;4.30;;;12.40;99.90;;;;;;4996081;28;20182;-89
2022/03/12 01:00:14;;;;;;;5.20;3.90;;;12.40;99.90;;;;;;4996280;28;20201;-89
2022/03/12 01:02:39;;;;;;;4.67;3.70;;;12.40;99.90;;;;;;4996021;28;20574;-89
2022/03/12 01:05:05;;;;;;;4.47;3.70;;;12.30;99.90;;;;;;4996180;28;20181;-90
2022/03/12 01:07:31;;;;;;;6.90;3.87;;;12.40;99.90;;;;;;4995947;28;20217;-89
2022/03/12 01:09:57;;;;;;;4.60;3.57;;;12.40;99.90;;;;;;4995585;28;20280;-91
2022/03/12 01:12:22;;;;;;;5.03;3.70;;;12.40;99.90;;;;;;4995300;28;20268;-90
2022/03/12 01:14:48;;;;;;;5.57;3.60;;;12.30;99.90;;;;;;4995853;28;20292;-90
2022/03/12 01:17:15;;;;;;;4.50;3.10;;;12.40;99.90;;;;;;4997667;28;20185;-91
2022/03/12 01:19:40;;;;;;;4.10;3.30;;;12.40;99.90;;;;;;4996009;28;20193;-90
2022/03/12 01:22:06;;;;;;;4.20;3.10;;;12.40;99.90;;;;;;4997319;28;20319;-90
2022/03/12 01:24:33;;;;;;;5.67;3.40;;;12.50;99.90;;;;;;4999768;28;20177;-90
2022/03/12 01:26:58;;;;;;;4.57;3.10;;;12.40;99.90;;;;;;5000311;28;20388;-90
2022/03/12 01:29:25;;;;;;;4.17;3.20;;;12.30;99.90;;;;;;4999903;28;20251;-90
2022/03/12 01:31:51;;;;;;;4.10;3.30;;;12.10;99.90;;;;;;4995840;28;20299;-90
2022/03/12 01:34:17;;;;;;;4.83;3.27;;;12.00;99.90;;;;;;4989872;28;20550;-91
2022/03/12 01:36:42;;;;;;;5.73;3.17;;;12.10;99.90;;;;;;4982660;28;20269;-90
2022/03/12 01:39:08;;;;;;;4.90;3.17;;;12.20;99.90;;;;;;4982000;28;20171;-90
2022/03/12 01:41:40;;;;;;;3.53;2.87;;;12.30;99.90;;;;;;4980382;28;20346;-90
2022/03/12 01:44:07;;;;;;;3.13;2.37;;;12.50;99.90;;;;;;4979985;28;20185;-90
2022/03/12 01:46:35;;;;;;;3.83;2.60;;;12.50;99.90;;;;;;4980173;28;20236;-90
2022/03/12 01:49:22;;;;;;;3.53;3.00;;;12.60;99.90;;;;;;4980033;28;20186;-90
2022/03/12 01:51:53;;;;;;;3.77;2.60;;;12.40;99.90;;;;;;4980082;28;20188;-90
2022/03/12 01:54:22;;;;;;;3.50;2.63;;;12.30;99.90;;;;;;4979756;28;20193;-90
2022/03/12 01:56:48;;;;;;;3.50;2.30;;;12.30;99.90;;;;;;4979992;28;20186;-90
2022/03/12 01:59:14;;;;;;;4.60;2.53;;;12.30;99.90;;;;;;4979743;28;20647;-89
2022/03/12 02:01:40;;;;;;;4.80;2.67;;;12.30;99.90;;;;;;4980154;28;20182;-90
2022/03/12 02:04:10;;;;;;;3.40;2.57;;;12.30;99.90;;;;;;4979768;28;20189;-90
2022/03/12 02:06:43;;;;;;;4.07;2.67;;;12.30;99.90;;;;;;4979780;28;20219;-90
2022/03/12 02:09:14;;;;;;;4.33;3.10;;;12.30;99.90;;;;;;4979432;28;20170;-89
2022/03/12 02:11:41;;;;;;;4.10;2.80;;;12.30;99.90;;;;;;4979873;28;20209;-90
2022/03/12 02:14:12;;;;;;;3.63;2.80;;;12.30;99.90;;;;;;4979542;28;20185;-90
2022/03/12 02:16:43;;;;;;;3.63;3.10;;;12.30;99.90;;;;;;4979490;28;20224;-89
2022/03/12 02:19:08;;;;;;;4.27;3.17;;;12.20;99.90;;;;;;4979471;28;20194;-90
2022/03/12 02:21:43;;;;;;;5.27;3.07;;;12.10;99.90;;;;;;4979392;28;20198;-90
2022/03/12 02:24:10;;;;;;;3.43;2.70;;;12.20;99.90;;;;;;4979327;28;20642;-91
2022/03/12 02:26:38;;;;;;;4.40;3.00;;;12.20;99.90;;;;;;4979449;28;20213;-91
2022/03/12 02:29:08;;;;;;;3.53;3.10;;;12.20;99.90;;;;;;4979181;28;20210;-90
2022/03/12 02:31:34;;;;;;;5.13;3.50;;;12.20;99.90;;;;;;4979284;28;20274;-90
2022/03/12 02:34:01;;;;;;;4.97;2.90;;;12.10;99.90;;;;;;4979061;28;20177;-89
2022/03/12 02:36:28;;;;;;;4.33;3.17;;;12.20;99.90;;;;;;4978987;28;20269;-90
2022/03/12 02:38:55;;;;;;;5.27;3.50;;;12.30;99.90;;;;;;4979271;28;20178;-90
2022/03/12 02:41:24;;;;;;;4.50;3.80;;;12.10;99.90;;;;;;4979181;28;20214;-90
2022/03/12 02:43:50;;;;;;;6.07;3.60;;;12.00;99.90;;;;;;4978971;28;20273;-90
2022/03/12 02:46:17;;;;;;;4.30;3.40;;;12.00;99.90;;;;;;4979023;28;20248;-90
2022/03/12 02:48:51;;;;;;;4.77;3.60;;;12.00;99.90;;;;;;4979005;28;20181;-90
2022/03/12 02:51:19;;;;;;;5.30;3.60;;;12.00;99.90;;;;;;4978646;28;20177;-90
2022/03/12 02:53:44;;;;;;;4.27;3.53;;;12.10;99.90;;;;;;4978871;28;20190;-90
2022/03/12 02:56:12;;;;;;;6.17;4.03;;;12.10;99.90;;;;;;4978902;28;20182;-90
2022/03/12 02:58:37;;;;;;;6.67;3.97;;;12.10;99.90;;;;;;4978785;28;20646;-90
2022/03/12 03:01:04;;;;;;;5.57;3.77;;;12.10;99.90;;;;;;4978653;28;20185;-90
2022/03/12 03:03:37;;;;;;;5.10;3.60;;;12.30;99.90;;;;;;4978663;28;20188;-89
2022/03/12 03:06:02;;;;;;;5.07;3.70;;;12.30;99.90;;;;;;4977812;28;20218;-90
2022/03/12 03:08:28;;;;;;;5.00;3.70;;;12.20;99.90;;;;;;4978306;28;20189;-90
2022/03/12 03:10:59;;;;;;;5.60;4.03;;;12.20;99.90;;;;;;4978256;28;20182;-90
2022/03/12 03:13:27;;;;;;;5.40;4.40;;;12.20;99.90;;;;;;4978210;28;20189;-90
2022/03/12 03:15:59;;;;;;;5.60;4.13;;;12.20;99.90;;;;;;4977739;28;20526;-90
2022/03/12 03:18:28;;;;;;;4.50;3.77;;;12.10;99.90;;;;;;4977948;28;20578;-90
2022/03/12 03:20:54;;;;;;;5.67;4.20;;;12.00;99.90;;;;;;4977681;28;20190;-90
2022/03/12 03:23:22;;;;;;;6.77;4.10;;;12.00;99.90;;;;;;4977826;28;20205;-90
2022/03/12 03:25:48;;;;;;;7.03;4.07;;;12.00;99.90;;;;;;4977775;28;20177;-90
2022/03/12 03:28:14;;;;;;;6.37;4.27;;;12.20;99.90;;;;;;4977937;28;20220;-90
2022/03/12 03:30:41;;;;;;;6.13;4.40;;;12.20;99.90;;;;;;4977822;28;20178;-88
2022/03/12 03:33:09;;;;;;;5.83;4.30;;;12.20;99.90;;;;;;4978213;28;20670;-89
2022/03/12 03:35:36;;;;;;;6.93;4.10;;;12.20;99.90;;;;;;4977763;28;20188;-89
2022/03/12 03:38:02;;;;;;;6.20;4.27;;;12.10;99.90;;;;;;4978136;28;20186;-89
2022/03/12 03:40:27;;;;;;;5.57;3.93;;;12.00;99.90;;;;;;4978220;28;20534;-90
2022/03/12 03:42:53;;;;;;;6.83;4.03;;;11.80;99.90;;;;;;4978101;28;20332;-89
2022/03/12 03:45:24;;;;;;;4.93;3.80;;;11.80;99.90;;;;;;4977456;28;20653;-90
2022/03/12 03:47:50;;;;;;;6.67;4.07;;;11.80;99.90;;;;;;4977624;28;20221;-90
2022/03/12 03:50:25;;;;;;;4.57;3.87;;;11.70;99.90;;;;;;4977766;28;20639;-90
2022/03/12 03:53:00;;;;;;;5.20;4.10;;;11.80;99.90;;;;;;4977747;28;20201;-91
2022/03/12 03:55:26;;;;;;;6.77;4.07;;;11.90;99.90;;;;;;4977881;28;20185;-90
2022/03/12 03:57:56;;;;;;;5.63;4.00;;;11.90;99.90;;;;;;4977568;28;20190;-89
2022/03/12 04:00:23;;;;;;;6.00;3.80;;;11.80;99.90;;;;;;4977813;28;20189;-90
2022/03/12 04:03:12;;;;;;;5.30;4.00;;;11.70;99.90;;;;;;4977720;28;20189;-90
2022/03/12 04:05:38;;;;;;;5.23;4.03;;;11.80;99.90;;;;;;4994196;28;20595;-94
2022/03/12 04:08:09;;;;;;;6.60;4.13;;;11.90;99.90;;;;;;4977385;28;20630;-89
2022/03/12 04:10:36;;;;;;;5.73;4.10;;;11.90;99.90;;;;;;4977712;28;20173;-91
2022/03/12 04:13:12;;;;;;;7.10;4.30;;;11.90;99.90;;;;;;4977386;28;20638;-90
2022/03/12 04:15:39;;;;;;;6.57;4.23;;;11.70;99.90;;;;;;4977371;28;20252;-90
2022/03/12 04:18:05;;;;;;;5.10;4.03;;;11.70;99.90;;;;;;4976969;28;20194;-90
2022/03/12 04:20:33;;;;;;;5.73;3.93;;;11.90;99.90;;;;;;4977451;28;20674;-90
2022/03/12 04:22:59;;;;;;;5.17;4.07;;;11.80;99.90;;;;;;4978051;28;20178;-90
2022/03/12 04:25:24;;;;;;;5.87;3.90;;;11.80;99.90;;;;;;4979221;28;20182;-90
2022/03/12 04:27:51;;;;;;;7.67;4.50;;;11.90;99.90;;;;;;4977057;28;20304;-90
2022/03/12 04:30:20;;;;;;;5.50;4.50;;;11.90;99.90;;;;;;4977236;28;20287;-90
2022/03/12 04:32:47;;;;;;;5.27;3.87;;;12.00;99.90;;;;;;4977071;28;20642;-90
2022/03/12 04:35:13;;;;;;;6.27;3.40;;;12.10;99.90;;;;;;4977118;28;20174;-89
2022/03/12 04:37:39;;;;;;;5.57;3.60;;;12.10;99.90;;;;;;4976909;28;20182;-90
2022/03/12 04:40:12;;;;;;;5.33;3.90;;;12.20;99.90;;;;;;4977219;28;20741;-90
2022/03/12 04:42:42;;;;;;;4.87;3.73;;;12.20;99.90;;;;;;4977063;28;20182;-90
2022/03/12 04:45:10;;;;;;;6.33;3.70;;;12.20;99.90;;;;;;4977185;28;20228;-90
2022/03/12 04:47:36;;;;;;;7.17;3.97;;;12.20;99.90;;;;;;4976641;28;20230;-90
2022/03/12 04:50:04;;;;;;;5.50;4.10;;;12.30;99.90;;;;;;4976725;28;20752;-90
2022/03/12 04:52:30;;;;;;;6.47;4.00;;;12.20;99.90;;;;;;4976748;28;20252;-90
2022/03/12 04:54:57;;;;;;;11.77;5.03;;;12.10;99.90;;;;;;4976817;28;20225;-90
2022/03/12 04:57:22;;;;;;;5.10;4.07;;;12.10;99.90;;;;;;4975845;28;20214;-89
2022/03/12 04:59:48;;;;;;;6.23;3.93;;;11.80;99.90;;;;;;4977095;28;20194;-89
2022/03/12 05:02:14;;;;;;;8.80;4.50;;;11.70;99.90;;;;;;4976581;28;20178;-90
2022/03/12 05:04:40;;;;;;;9.17;4.23;;;11.60;99.90;;;;;;4976646;28;20182;-88
2022/03/12 05:07:08;;;;;;;7.13;4.00;;;11.60;99.90;;;;;;4979644;28;20307;-88
2022/03/12 05:09:35;;;;;;;6.77;3.73;;;11.60;99.90;;;;;;4985621;28;20612;-90
2022/03/12 05:12:05;;;;;;;8.60;4.00;;;11.50;99.90;;;;;;4983086;28;20193;-89
2022/03/12 05:14:34;;;;;;;5.00;3.67;;;11.50;99.90;;;;;;4978773;28;20329;-90
2022/03/12 05:17:06;;;;;;;7.93;3.83;;;11.60;99.90;;;;;;4981207;28;20185;-90
2022/03/12 05:19:35;;;;;;;6.33;3.80;;;11.50;99.90;;;;;;4991914;28;20208;-89
2022/03/12 05:22:05;;;;;;;6.57;3.80;;;11.60;99.90;;;;;;4995875;28;20526;-89
2022/03/12 05:24:31;;;;;;;6.27;3.53;;;11.40;99.90;;;;;;4991605;28;20272;-90
2022/03/12 05:26:59;;;;;;;5.73;3.17;;;11.30;99.90;;;;;;4957074;28;20216;-89
2022/03/12 05:29:25;;;;;;;5.17;3.90;;;11.40;99.90;;;;;;4988417;28;20580;-90
2022/03/12 05:31:52;;;;;;;7.17;4.20;;;11.50;99.90;;;;;;4983203;28;20189;-88
2022/03/12 05:34:22;;;;;;;8.53;4.40;;;11.50;99.90;;;;;;4987598;28;20216;-90
2022/03/12 05:36:49;;;;;;;5.63;3.10;;;11.50;99.90;;;;;;4996189;28;20220;-90
2022/03/12 05:39:17;;;;;;;6.47;2.93;;;11.50;99.90;;;;;;4995994;28;20228;-89
2022/03/12 05:41:44;;;;;;;6.93;3.13;;;11.30;99.90;;;;;;4996129;28;20208;-89
2022/03/12 05:44:16;;;;;;;6.50;3.37;;;11.10;99.90;;;;;;4995636;28;20173;-90
2022/03/12 05:46:42;;;;;;;5.77;3.23;;;11.00;99.90;;;;;;4995585;28;20217;-89
2022/03/12 05:49:09;;;;;;;5.03;2.93;;;11.10;99.90;;;;;;4995661;28;20231;-89
2022/03/12 05:51:38;;;;;;;5.63;2.90;;;11.10;99.90;;;;;;4995756;28;20536;-89
2022/03/12 05:54:03;;;;;;;5.37;3.03;;;11.30;99.90;;;;;;4995506;28;20231;-89
2022/03/12 05:56:30;;;;;;;4.57;3.07;;;11.20;99.90;;;;;;4995913;28;20169;-90
2022/03/12 05:58:55;;;;;;;5.33;3.50;;;11.10;99.90;;;;;;4995660;28;20684;-89
2022/03/12 06:01:21;;;;;;;4.77;3.20;;;11.10;99.90;;;;;;4995463;28;20307;-90
2022/03/12 06:03:47;;;;;;;10.20;3.53;;;11.20;99.90;;;;;;4995638;28;20236;-89
2022/03/12 06:06:14;;;;;;;7.20;3.73;;;11.10;99.90;;;;;;4995466;28;20292;-89
2022/03/12 06:08:40;;;;;;;7.70;3.20;;;11.20;99.90;;;;;;4997664;28;20180;-90
2022/03/12 06:11:06;;;;;;;4.50;3.07;;;11.10;99.90;;;;;;4999087;28;20173;-89
2022/03/12 06:13:32;;;;;;;4.23;2.50;;;11.10;99.90;;;;;;4990815;28;20213;-90
2022/03/12 06:15:58;;;;;;;6.93;3.57;;;11.20;99.90;;;;;;4985864;28;20190;-90
2022/03/12 06:18:28;;;;;;;7.03;3.40;;;11.20;99.90;;;;;;4999065;28;20201;-90
2022/03/12 06:20:54;;;;;;;7.50;3.47;;;11.20;99.90;;;;;;4998939;28;20213;-90
2022/03/12 06:23:20;;;;;;;6.93;4.20;;;11.30;99.90;;;;;;4998837;28;20221;-90
2022/03/12 06:25:46;;;;;;;9.20;3.80;;;11.30;99.90;;;;;;5004639;28;20181;-89
2022/03/12 06:28:12;;;;;;;7.33;3.37;;;11.30;99.90;;;;;;4998926;28;20217;-88
2022/03/12 06:30:42;;;;;;;6.30;2.90;;;11.30;99.90;;;;;;4998638;28;20193;-89
2022/03/12 06:33:08;;;;;;;5.37;3.13;;;11.20;99.90;;;;;;4998664;28;20671;-91
2022/03/12 06:35:34;;;;;;;9.93;4.00;;;11.10;99.90;;;;;;4998822;28;20617;-89
2022/03/12 06:38:00;;;;;;;6.67;3.70;;;11.20;99.90;;;;;;4998794;28;20183;-89
2022/03/12 06:40:28;;;;;;;6.53;3.63;;;11.10;99.90;;;;;;4998508;28;20177;-89
2022/03/12 06:42:56;;;;;;;7.50;3.47;;;11.10;99.90;;;;;;4998531;28;20173;-89
2022/03/12 06:45:24;;;;;;;6.10;3.27;;;11.20;99.90;;;;;;4998653;28;20188;-89
2022/03/12 06:47:52;;;;;;;6.50;3.53;;;11.30;99.90;;;;;;4998362;28;20303;-89
2022/03/12 06:50:21;;;;;;;6.77;3.40;;;11.40;99.90;;;;;;4998500;28;20174;-89
2022/03/12 06:52:48;;;;;;;6.67;3.33;;;11.40;99.90;;;;;;4998589;28;20728;-86
2022/03/12 06:55:18;;;;;;;7.93;3.43;;;11.30;99.90;;;;;;4998059;28;20184;-86
2022/03/12 06:57:46;;;;;;;9.17;3.63;;;11.40;99.90;;;;;;4997790;28;20188;-86
2022/03/12 07:00:15;;;;;;;9.90;3.53;;;11.30;99.90;;;;;;4997986;28;20313;-86
2022/03/12 07:02:41;;;;;;;7.13;3.60;;;11.40;99.90;;;;;;4998163;28;20185;-86
2022/03/12 07:05:07;;;;;;;5.30;3.30;;;11.30;99.90;;;;;;4997917;28;20315;-85
2022/03/12 07:07:33;;;;;;;7.73;3.60;;;11.20;99.90;;;;;;4997998;28;20209;-86
2022/03/12 07:09:58;;;;;;;4.67;3.23;;;11.20;99.90;;;;;;4997825;28;20173;-86
2022/03/12 07:12:24;;;;;;;6.57;3.33;;;11.30;99.90;;;;;;4997529;28;20181;-86
2022/03/12 07:14:50;;;;;;;6.83;3.63;;;11.20;99.90;;;;;;4998156;28;20581;-85
2022/03/12 07:17:16;;;;;;;8.90;3.67;;;11.20;99.90;;;;;;4997815;28;20184;-86
2022/03/12 07:19:42;;;;;;;10.23;3.40;;;11.30;99.90;;;;;;4996752;28;20194;-86
2022/03/12 07:22:07;;;;;;;7.77;3.10;;;11.20;99.90;;;;;;4997422;28;20587;-86
2022/03/12 07:24:34;;;;;;;9.20;2.83;;;11.40;99.90;;;;;;4997609;28;20169;-85
2022/03/12 07:27:00;;;;;;;5.53;3.10;;;11.50;99.90;;;;;;4997100;28;20216;-86
2022/03/12 07:29:26;;;;;;;8.17;3.80;;;11.60;99.90;;;;;;4997617;28;20320;-86
2022/03/12 07:31:52;;;;;;;5.83;3.57;;;11.60;99.90;;;;;;4997474;28;20272;-86
2022/03/12 07:34:19;;;;;;;8.77;3.00;;;11.70;99.90;;;;;;4998026;28;20208;-86
2022/03/12 07:36:46;;;;;;;6.27;2.93;;;11.60;99.90;;;;;;4997438;28;20173;-86
2022/03/12 07:39:14;;;;;;;6.17;3.13;;;11.50;99.90;;;;;;4997365;28;20181;-86
2022/03/12 07:41:40;;;;;;;11.10;3.53;;;11.60;99.90;;;;;;4996989;28;20223;-87
2022/03/12 07:44:07;;;;;;;8.17;2.93;;;11.70;99.90;;;;;;4997207;28;20180;-86
2022/03/12 07:46:33;;;;;;;8.60;3.30;;;11.80;99.90;;;;;;4996956;28;20205;-86
2022/03/12 07:49:00;;;;;;;6.30;3.87;;;11.80;99.90;;;;;;4997162;28;20181;-85
2022/03/12 07:51:26;;;;;;;10.10;3.00;;;11.70;99.90;;;;;;4997276;28;20185;-85
2022/03/12 07:53:52;;;;;;;6.30;2.70;;;11.70;99.90;;;;;;4997254;28;20199;-86
2022/03/12 07:56:18;;;;;;;10.17;2.93;;;11.80;99.90;;;;;;4996820;28;20174;-85
2022/03/12 07:58:44;;;;;;;5.87;3.70;;;11.80;99.90;;;;;;4997157;28;20197;-85
2022/03/12 08:01:10;;;;;;;8.57;3.20;;;11.80;99.90;;;;;;4996997;28;20557;-86
2022/03/12 08:03:36;;;;;;;7.07;3.20;;;11.80;99.90;;;;;;4997063;28;20596;-86
2022/03/12 08:06:03;;;;;;;8.23;2.97;;;11.70;99.90;;;;;;4996891;28;20192;-86
2022/03/12 08:08:29;;;;;;;8.07;3.23;;;11.70;99.90;;;;;;4996590;28;20169;-85
2022/03/12 08:13:39;;;;;;;4.27;2.50;;;11.30;99.90;;;;;;5014732;28;20201;-86
2022/03/12 08:16:06;;;;;;;9.60;3.13;;;11.50;99.90;;;;;;4996719;28;20185;-86
2022/03/12 08:18:31;;;;;;;7.33;3.10;;;11.50;99.90;;;;;;4996933;28;20243;-86
2022/03/12 08:20:57;;;;;;;6.00;3.27;;;11.60;99.90;;;;;;4996759;28;20264;-86
2022/03/12 08:23:22;;;;;;;7.90;3.03;;;11.90;99.90;;;;;;4996349;28;20648;-84
2022/03/12 08:25:48;;;;;;;9.13;3.30;;;11.90;99.90;;;;;;4996446;28;20189;-85
2022/03/12 08:28:14;;;;;;;8.33;3.03;;;11.80;99.90;;;;;;4996186;28;20213;-85
2022/03/12 08:30:40;;;;;;;7.87;2.80;;;11.90;99.90;;;;;;4996354;28;20189;-85
2022/03/12 08:33:06;;;;;;;6.90;2.60;;;11.80;99.90;;;;;;4996572;28;20243;-85
2022/03/12 08:35:32;;;;;;;5.97;3.23;;;11.80;99.90;;;;;;4996532;28;20208;-85
2022/03/12 08:37:58;;;;;;;7.17;2.73;;;11.60;99.90;;;;;;4996276;28;20188;-85
2022/03/12 08:40:27;;;;;;;6.17;2.77;;;11.40;99.90;;;;;;4996057;28;20185;-86
2022/03/12 08:42:53;;;;;;;11.60;3.20;;;11.40;99.90;;;;;;4996182;28;20215;-85
2022/03/12 08:45:19;;;;;;;7.20;2.60;;;11.60;99.90;;;;;;4996248;28;20173;-85
2022/03/12 08:47:45;;;;;;;11.13;3.17;;;11.60;99.90;;;;;;4996122;28;20270;-84
2022/03/12 08:50:11;;;;;;;10.03;3.97;;;11.70;99.90;;;;;;4995978;28;20173;-86
2022/03/12 08:52:38;;;;;;;5.90;2.97;;;11.90;99.90;;;;;;4996147;28;20728;-84
2022/03/12 08:55:06;;;;;;;13.67;3.57;;;12.10;99.90;;;;;;4995923;28;20173;-85
2022/03/12 08:57:32;;;;;;;6.73;3.20;;;12.20;99.90;;;;;;4995847;28;20627;-85
2022/03/12 08:59:57;;;;;;;6.20;2.90;;;12.30;99.90;;;;;;4995930;28;20197;-85
2022/03/12 09:02:23;;;;;;;4.33;2.63;;;12.10;99.90;;;;;;4995173;28;20172;-86
2022/03/12 09:04:50;;;;;;;9.80;3.40;;;12.10;99.90;;;;;;4994802;28;20265;-86
2022/03/12 09:07:15;;;;;;;10.40;3.73;;;12.10;99.90;;;;;;4995394;28;20702;-87
2022/03/12 09:09:41;;;;;;;6.63;3.10;;;12.00;99.90;;;;;;4995112;28;20287;-86
2022/03/12 09:12:08;;;;;;;6.07;3.23;;;12.00;99.90;;;;;;4995776;28;20248;-86
2022/03/12 09:14:36;;;;;;;8.83;3.10;;;12.20;99.90;;;;;;4995266;28;20268;-85
2022/03/12 09:17:03;;;;;;;7.17;2.77;;;12.30;99.90;;;;;;4995523;28;20193;-85
2022/03/12 09:19:29;;;;;;;8.93;4.00;;;12.30;99.90;;;;;;4995532;28;20661;-86
2022/03/12 09:21:59;;;;;;;4.60;2.70;;;12.30;99.90;;;;;;4995968;28;20185;-85
2022/03/12 09:24:25;;;;;;;5.63;3.40;;;12.40;99.90;;;;;;4996397;28;20173;-84
2022/03/12 09:26:51;;;;;;;6.10;2.50;;;12.40;99.90;;;;;;4996174;28;20236;-90
2022/03/12 09:29:17;;;;;;;6.60;2.50;;;12.50;99.90;;;;;;4994325;28;20193;-90
2022/03/12 09:31:43;;;;;;;7.20;2.80;;;12.60;99.90;;;;;;4986449;28;20267;-86
2022/03/12 09:34:09;;;;;;;11.57;3.87;;;12.80;99.90;;;;;;4987999;28;20219;-92
2022/03/12 09:36:36;;;;;;;7.70;2.60;;;12.80;99.90;;;;;;4992484;28;20272;-92
2022/03/12 09:39:03;;;;;;;6.70;2.63;;;12.90;99.90;;;;;;4983622;28;20615;-92
2022/03/12 09:41:28;;;;;;;8.40;2.73;;;12.80;99.90;;;;;;4979526;28;20195;-91
2022/03/12 09:43:54;;;;;;;4.80;2.20;;;12.80;99.90;;;;;;4980729;28;20182;-86
2022/03/12 09:46:20;;;;;;;6.93;2.40;;;12.80;99.90;;;;;;4982756;28;20248;-93
2022/03/12 09:48:45;;;;;;;8.53;2.23;;;12.80;99.90;;;;;;4984723;28;20195;-91
2022/03/12 09:51:11;;;;;;;4.27;2.10;;;12.80;99.90;;;;;;4991515;28;20186;-92
2022/03/12 09:53:37;;;;;;;4.47;2.10;;;12.90;99.90;;;;;;4994011;28;20707;-92
2022/03/12 09:56:48;;;;;;;5.33;1.80;;;12.80;99.90;;;;;;5007520;28;20177;-90
2022/03/12 09:59:37;;;;;;;11.60;2.60;;;13.00;99.60;;;;;;5038921;28;20212;-91
2022/03/12 10:02:03;;;;;;;5.80;2.30;;;13.00;99.30;;;;;;5000550;28;20182;-89
2022/03/12 10:04:29;;;;;;;6.20;2.17;;;13.10;99.30;;;;;;4992761;28;20634;-89
2022/03/12 10:06:56;;;;;;;5.87;2.03;;;13.20;98.90;;;;;;4978967;28;20246;-89
2022/03/12 10:09:22;;;;;;;7.20;1.93;;;13.20;98.80;;;;;;4963418;28;20187;-89
2022/03/12 10:11:51;;;;;;;7.50;1.67;;;13.20;98.20;;;;;;4980798;28;20182;-88
2022/03/12 10:14:18;;;;;;;3.90;1.30;;;13.40;98.00;;;;;;4976588;28;20179;-89
2022/03/12 10:16:43;;;;;;;5.13;1.67;;;13.50;97.70;;;;;;4981253;28;20255;-88
2022/03/12 10:19:10;;;;;;;4.33;1.63;;;13.70;97.20;;;;;;4995990;28;20751;-86
2022/03/12 10:21:42;;;;;;;4.00;1.80;;;13.80;96.70;;;;;;4998011;28;20582;-88
2022/03/12 10:24:08;;;;;;;7.27;1.70;;;13.80;96.90;;;;;;4988579;28;20218;-89
2022/03/12 10:26:34;;;;;;;4.10;1.70;;;14.00;96.70;;;;;;4994866;28;20584;-89
2022/03/12 10:29:00;;;;;;;12.73;1.70;;;14.20;96.40;;;;;;4989046;28;20183;-89
2022/03/12 10:31:26;;;;;;;6.57;1.63;;;14.30;96.20;;;;;;5007775;28;20212;-90
2022/03/12 10:33:52;;;;;;;7.17;1.90;;;14.50;96.10;;;;;;4991236;28;20199;-89
2022/03/12 10:36:18;;;;;;;5.37;1.50;;;14.70;95.30;;;;;;5008443;28;20556;-87
2022/03/12 10:38:50;;;;;;;6.33;1.97;;;14.90;94.70;;;;;;4998774;28;20661;-88
2022/03/12 10:41:17;;;;;;;4.30;1.87;;;15.00;94.20;;;;;;4980533;28;20276;-89
2022/03/12 10:43:52;;;;;;;6.73;2.00;;;15.20;94.20;;;;;;4999624;28;20181;-89
2022/03/12 10:46:27;;;;;;;7.27;2.43;;;15.50;94.00;;;;;;4976239;28;20192;-89
2022/03/12 10:48:58;;;;;;;7.03;1.80;;;15.80;93.30;;;;;;4978879;28;20196;-89
2022/03/12 10:51:31;;;;;;;7.83;2.03;;;16.00;92.70;;;;;;5006556;28;20194;-88
2022/03/12 10:54:07;;;;;;;7.37;2.03;;;15.70;92.90;;;;;;4976736;28;20184;-87
2022/03/12 10:56:50;;;;;;;6.93;2.27;;;15.80;92.80;;;;;;4997021;28;20184;-88
2022/03/12 10:59:22;;;;;;;4.40;1.43;;;15.70;92.50;;;;;;4982015;28;20295;-89
2022/03/12 11:01:51;;;;;;;8.43;1.60;;;15.70;92.40;;;;;;5007526;28;20192;-89
2022/03/12 11:04:26;;;;;;;6.00;1.80;;;15.70;92.30;;;;;;5000203;28;20189;-89
2022/03/12 11:06:54;;;;;;;9.03;2.87;;;16.00;92.20;;;;;;4977676;28;20217;-89
2022/03/12 11:09:38;;;;;;;4.83;1.67;;;16.30;92.00;;;;;;5001614;28;20192;-88
2022/03/12 11:12:30;;;;;;;5.80;1.70;;;17.00;90.70;;;;;;4972486;28;20273;-89
2022/03/12 11:15:17;;;;;;;5.53;1.87;;;17.40;90.00;;;;;;4982103;28;20224;-89
2022/03/12 11:17:44;;;;;;;3.87;1.60;;;17.80;89.00;;;;;;5013568;28;20692;-89
2022/03/12 11:20:17;;;;;;;5.93;2.07;;;18.40;87.80;;;;;;4992099;28;20210;-89
2022/03/12 11:22:49;;;;;;;5.00;1.63;;;18.30;87.30;;;;;;4988004;28;20546;-89
2022/03/12 11:25:20;;;;;;;4.67;1.70;;;18.00;87.20;;;;;;4981946;28;20696;-89
2022/03/12 11:27:50;;;;;;;5.93;1.60;;;17.50;86.50;;;;;;5007996;28;20225;-88
2022/03/12 11:30:20;;;;;;;5.80;1.60;;;17.20;86.60;;;;;;4994391;28;20190;-87
2022/03/12 11:32:47;;;;;;;4.80;1.47;;;17.30;87.20;;;;;;4993130;28;20533;-88
2022/03/12 11:35:21;;;;;;;7.27;1.60;;;17.40;86.80;;;;;;4996938;28;20185;-88
2022/03/12 11:37:47;;;;;;;6.27;1.47;;;17.60;85.80;;;;;;5002743;28;20175;-89
2022/03/12 11:40:19;;;;;;;4.47;1.27;;;17.80;86.20;;;;;;4967190;28;20201;-88
2022/03/12 11:42:47;;;;;;;3.13;1.87;;;18.10;84.20;;;;;;4971828;28;20295;-88
2022/03/12 11:45:16;;;;;;;5.47;1.40;;;18.00;84.90;;;;;;4992765;28;20188;-90
2022/03/12 11:47:46;;;;;;;6.73;1.40;;;18.30;83.70;;;;;;5013761;28;20225;-89
2022/03/12 11:50:19;;;;;;;4.33;1.53;;;18.10;82.80;;;;;;4998872;28;20175;-89
2022/03/12 11:52:46;;;;;;;4.63;1.40;;;17.40;84.00;;;;;;4992557;28;20170;-90
2022/03/12 11:55:32;;;;;;;6.40;1.57;;;17.30;85.00;;;;;;4993503;28;20174;-90
2022/03/12 11:58:01;;;;;;;6.70;1.63;;;17.40;85.00;;;;;;4979686;28;20212;-90
2022/03/12 12:00:31;;;;;;;3.67;1.20;;;18.10;83.70;;;;;;4985108;28;20222;-88
2022/03/12 12:02:57;;;;;;;7.80;1.70;;;17.90;83.90;;;;;;4972785;28;20208;-88
2022/03/12 12:05:25;;;;;;;7.43;2.00;;;18.20;83.70;;;;;;5010026;28;20603;-89
2022/03/12 12:07:52;;;;;;;3.77;1.23;;;18.10;83.40;;;;;;4993168;28;20585;-89
2022/03/12 12:10:29;;;;;;;4.80;1.47;;;18.10;83.00;;;;;;5001778;28;20185;-88
2022/03/12 12:12:58;;;;;;;5.97;1.30;;;17.90;84.00;;;;;;4982803;28;20184;-87
2022/03/12 12:15:29;;;;;;;5.27;1.23;;;17.70;84.90;;;;;;4991902;28;20738;-88
2022/03/12 12:17:55;;;;;;;7.70;1.60;;;17.60;85.30;;;;;;4988099;28;20613;-88
2022/03/12 12:20:22;;;;;;;6.47;1.83;;;17.60;85.10;;;;;;4997450;28;20207;-90
2022/03/12 12:22:49;;;;;;;5.73;1.97;;;17.70;84.80;;;;;;4976725;28;20174;-90
2022/03/12 12:25:16;;;;;;;6.90;1.70;;;17.80;85.40;;;;;;4983268;28;20178;-88
2022/03/12 12:27:45;;;;;;;4.70;1.53;;;18.30;84.40;;;;;;4999282;28;20238;-89
2022/03/12 12:30:15;;;;;;;9.00;1.70;;;18.50;83.60;;;;;;4972653;28;20186;-87
2022/03/12 12:32:49;;;;;;;7.20;2.03;;;18.30;83.70;;;;;;4992177;28;20182;-88
2022/03/12 12:35:19;;;;;;;4.50;1.90;;;18.00;85.00;;;;;;4982769;28;20178;-88
2022/03/12 12:38:04;;;;;;;3.40;1.43;;;18.50;83.60;;;;;;4998996;28;20179;-87
2022/03/12 12:45:52;;;;;;;10.47;2.10;;;19.50;81.10;;;;;;5011424;28;20215;-87
2022/03/12 12:48:26;;;;;;;6.03;1.70;;;20.00;79.30;;;;;;4996139;28;20743;-89
2022/03/12 12:51:10;;;;;;;9.47;1.63;;;20.30;78.80;;;;;;5005367;28;20235;-88
2022/03/12 12:53:41;;;;;;;5.63;1.53;;;20.70;78.40;;;;;;5005512;28;20177;-89
2022/03/12 12:56:26;;;;;;;4.63;1.30;;;21.20;76.00;;;;;;5008665;28;20270;-89
2022/03/12 12:58:52;;;;;;;9.00;1.93;;;20.70;77.00;;;;;;5000057;28;20631;-88